Time;durP1;ratioP1;P1;durP2;ratioP2;P2;SDS_P1;SDS_P2;PMS_P1;PMS_P2;Temp;Humidity;BMP_temperature;BMP_pressure;BME280_temperature;BME280_humidity;BME280_pressure;Samples;Min_cycle;Max_cycle;Signal;HPM_P1;HPM_P2
2022/01/08 00:01:11;;;;;;;5.47;2.33;;;2.80;83.40;;;;;;5012916;28;20045;-86
2022/01/08 00:03:40;;;;;;;6.82;2.78;;;2.80;83.40;;;;;;5029237;28;20057;-86
2022/01/08 00:06:08;;;;;;;6.20;2.60;;;2.80;83.40;;;;;;5033232;28;20054;-86
2022/01/08 00:08:36;;;;;;;7.47;2.40;;;2.80;83.40;;;;;;5021889;28;20410;-86
2022/01/08 00:11:06;;;;;;;6.95;2.95;;;2.80;83.50;;;;;;5026133;28;20045;-86
2022/01/08 00:13:34;;;;;;;6.13;2.25;;;2.80;83.50;;;;;;5030632;28;20506;-85
2022/01/08 00:16:01;;;;;;;5.57;2.33;;;2.80;83.50;;;;;;5030600;28;20395;-85
2022/01/08 00:18:28;;;;;;;5.70;2.10;;;2.80;83.50;;;;;;5032904;28;20497;-86
2022/01/08 00:20:55;;;;;;;4.80;2.40;;;2.90;83.50;;;;;;5032418;28;20037;-86
2022/01/08 00:23:22;;;;;;;7.10;3.05;;;2.90;83.50;;;;;;5033437;28;20076;-86
2022/01/08 00:25:49;;;;;;;6.47;2.90;;;2.90;83.50;;;;;;5033647;28;20052;-87
2022/01/08 00:28:16;;;;;;;6.82;2.78;;;2.90;83.50;;;;;;5033601;28;20084;-86
2022/01/08 00:30:44;;;;;;;7.25;2.42;;;2.90;83.50;;;;;;5032221;28;20045;-86
2022/01/08 00:33:11;;;;;;;12.88;3.20;;;2.90;83.60;;;;;;5033345;28;20049;-86
2022/01/08 00:35:38;;;;;;;7.68;2.53;;;2.90;83.60;;;;;;5033233;28;20045;-85
2022/01/08 00:38:05;;;;;;;6.03;2.40;;;2.90;83.60;;;;;;5033301;28;20520;-86
2022/01/08 00:40:32;;;;;;;5.78;2.45;;;2.90;83.60;;;;;;5033485;28;20421;-86
2022/01/08 00:42:59;;;;;;;5.60;3.08;;;2.90;83.60;;;;;;5033322;28;20060;-86
2022/01/08 00:45:26;;;;;;;7.10;2.55;;;2.90;83.70;;;;;;5032183;28;20053;-86
2022/01/08 00:47:54;;;;;;;5.60;2.83;;;2.90;83.70;;;;;;5033220;28;20047;-86
2022/01/08 00:50:21;;;;;;;5.55;2.38;;;2.90;83.70;;;;;;5031885;28;20048;-86
2022/01/08 00:52:49;;;;;;;7.43;3.25;;;2.90;83.70;;;;;;5033006;28;20045;-86
2022/01/08 00:55:16;;;;;;;5.78;2.65;;;2.90;83.70;;;;;;5033241;28;20045;-86
2022/01/08 00:57:43;;;;;;;5.47;2.65;;;2.90;83.70;;;;;;5032428;28;20050;-86
2022/01/08 01:00:12;;;;;;;5.88;2.70;;;2.90;83.70;;;;;;5032792;28;20068;-86
2022/01/08 01:02:40;;;;;;;8.25;2.83;;;2.90;83.70;;;;;;5033007;28;20049;-86
2022/01/08 01:05:08;;;;;;;6.32;2.40;;;2.90;83.70;;;;;;5033012;28;20041;-87
2022/01/08 01:07:36;;;;;;;7.57;2.88;;;2.90;83.70;;;;;;5031655;28;20421;-86
2022/01/08 01:10:05;;;;;;;6.93;2.78;;;2.90;83.70;;;;;;5033014;28;20045;-86
2022/01/08 01:12:32;;;;;;;7.13;2.80;;;2.90;83.70;;;;;;5031806;28;20057;-86
2022/01/08 01:15:12;;;;;;;7.15;2.85;;;2.90;83.70;;;;;;5034616;28;20144;-86
2022/01/08 01:17:39;;;;;;;5.45;2.65;;;2.90;83.70;;;;;;5031682;28;20046;-87
2022/01/08 01:20:08;;;;;;;5.18;2.85;;;2.90;83.70;;;;;;5032824;28;20048;-86
2022/01/08 01:22:46;;;;;;;7.38;2.95;;;2.90;83.70;;;;;;5033031;28;20421;-86
2022/01/08 01:25:18;;;;;;;8.23;3.05;;;2.90;83.70;;;;;;5017961;28;20044;-86
2022/01/08 01:30:17;;;;;;;8.48;2.95;;;2.90;83.70;;;;;;5033010;28;20049;-86
2022/01/08 01:48:54;;;;;;;7.07;3.20;;;2.90;83.70;;;;;;5014482;28;20430;-86
2022/01/08 01:51:22;;;;;;;9.93;4.18;;;2.90;83.70;;;;;;5011707;28;20050;-85
2022/01/08 01:53:50;;;;;;;11.68;3.40;;;2.90;83.70;;;;;;5014349;28;20410;-85
2022/01/08 01:56:19;;;;;;;8.60;3.50;;;2.90;83.70;;;;;;5013930;28;20056;-86
2022/01/08 01:58:47;;;;;;;12.23;3.90;;;2.90;83.70;;;;;;5014238;28;20038;-86
2022/01/08 02:01:14;;;;;;;7.20;3.25;;;2.90;83.70;;;;;;5014416;28;20057;-86
2022/01/08 02:03:42;;;;;;;7.28;3.78;;;2.90;83.70;;;;;;5013551;28;20511;-87
2022/01/08 02:06:09;;;;;;;9.50;3.88;;;2.90;83.60;;;;;;5014050;28;20058;-86
2022/01/08 02:08:41;;;;;;;11.57;3.72;;;2.90;83.60;;;;;;5014145;28;20038;-86
2022/01/08 02:11:09;;;;;;;8.93;3.55;;;2.90;83.60;;;;;;5013649;28;20052;-86
2022/01/08 02:13:36;;;;;;;10.52;3.72;;;2.90;83.60;;;;;;5014092;28;20042;-86
2022/01/08 02:16:06;;;;;;;8.93;3.40;;;2.90;83.60;;;;;;5014087;28;20049;-86
2022/01/08 02:18:34;;;;;;;8.60;3.90;;;2.90;83.60;;;;;;5013263;28;20497;-87
2022/01/08 02:21:02;;;;;;;9.70;3.78;;;2.90;83.60;;;;;;5013964;28;20437;-86
2022/01/08 02:23:30;;;;;;;11.13;3.63;;;2.90;83.60;;;;;;5024205;28;20041;-86
2022/01/08 02:26:09;;;;;;;8.05;3.45;;;2.90;83.60;;;;;;5035362;28;20506;-86
2022/01/08 02:28:38;;;;;;;9.23;3.88;;;2.80;83.60;;;;;;5035824;28;20047;-87
2022/01/08 02:31:05;;;;;;;10.90;4.00;;;2.80;83.60;;;;;;5034626;28;20056;-86
2022/01/08 02:33:32;;;;;;;11.43;4.05;;;2.80;83.60;;;;;;5034842;28;20053;-87
2022/01/08 02:36:06;;;;;;;9.20;3.33;;;2.80;83.60;;;;;;5035495;28;20491;-87
2022/01/08 02:38:33;;;;;;;9.98;3.90;;;2.80;83.50;;;;;;5035668;28;20116;-86
2022/01/08 02:41:03;;;;;;;15.30;3.67;;;2.80;83.60;;;;;;5035175;28;20059;-87
2022/01/08 02:43:33;;;;;;;11.02;3.70;;;2.80;83.60;;;;;;5035518;28;20516;-87
2022/01/08 02:46:01;;;;;;;8.55;3.33;;;2.80;83.60;;;;;;5035508;28;20053;-87
2022/01/08 02:48:28;;;;;;;11.82;3.78;;;2.80;83.60;;;;;;5034548;28;20383;-87
2022/01/08 02:50:55;;;;;;;8.75;2.95;;;2.80;83.60;;;;;;5035216;28;20049;-87
2022/01/08 02:53:22;;;;;;;8.00;3.33;;;2.80;83.60;;;;;;5035201;28;20099;-87
2022/01/08 02:55:51;;;;;;;13.15;3.53;;;2.80;83.60;;;;;;5034678;28;20490;-86
2022/01/08 02:58:18;;;;;;;8.77;3.40;;;2.80;83.60;;;;;;5035297;28;20045;-87
2022/01/08 03:00:45;;;;;;;8.38;3.40;;;2.80;83.60;;;;;;5034296;28;20057;-86
2022/01/08 03:03:14;;;;;;;12.07;3.90;;;2.80;83.60;;;;;;5035575;28;20073;-86
2022/01/08 03:05:41;;;;;;;7.85;3.15;;;2.80;83.60;;;;;;5034820;28;20072;-86
2022/01/08 03:08:08;;;;;;;6.32;2.78;;;2.80;83.60;;;;;;5035015;28;20048;-87
2022/01/08 03:10:35;;;;;;;10.10;3.25;;;2.80;83.60;;;;;;5034570;28;20061;-87
2022/01/08 03:13:02;;;;;;;10.27;3.38;;;2.80;83.60;;;;;;5033746;28;20050;-86
2022/01/08 03:15:34;;;;;;;11.38;3.20;;;2.80;83.60;;;;;;5034127;28;20053;-87
2022/01/08 03:18:03;;;;;;;7.32;3.13;;;2.80;83.60;;;;;;5034815;28;20050;-86
2022/01/08 03:20:30;;;;;;;12.75;2.97;;;2.70;83.60;;;;;;5034709;28;20056;-87
2022/01/08 03:23:03;;;;;;;7.78;3.40;;;2.80;83.60;;;;;;5034299;28;20048;-87
2022/01/08 03:25:31;;;;;;;10.52;3.65;;;2.70;83.60;;;;;;5034707;28;20049;-87
2022/01/08 03:27:58;;;;;;;8.52;3.70;;;2.80;83.60;;;;;;5034789;28;24291;-88
2022/01/08 03:30:27;;;;;;;8.82;3.40;;;2.80;83.60;;;;;;5033715;28;20077;-87
2022/01/08 03:32:54;;;;;;;7.68;3.20;;;2.70;83.60;;;;;;5034423;28;20521;-87
2022/01/08 03:35:21;;;;;;;7.85;3.30;;;2.70;83.60;;;;;;5034442;28;20045;-87
2022/01/08 03:37:49;;;;;;;13.02;3.45;;;2.70;83.60;;;;;;5034241;28;20056;-88
2022/01/08 03:40:16;;;;;;;9.95;3.25;;;2.70;83.60;;;;;;5034500;28;20053;-87
2022/01/08 03:42:43;;;;;;;10.00;3.38;;;2.70;83.50;;;;;;5033452;28;20052;-88
2022/01/08 03:45:10;;;;;;;8.30;3.30;;;2.70;83.60;;;;;;5034463;28;20413;-89
2022/01/08 03:48:05;;;;;;;11.57;3.03;;;2.70;83.60;;;;;;5034237;28;20532;-87
2022/01/08 03:50:33;;;;;;;9.57;2.80;;;2.70;83.50;;;;;;5033944;28;20045;-88
2022/01/08 03:53:00;;;;;;;7.20;2.90;;;2.70;83.50;;;;;;5033720;28;20047;-88
2022/01/08 03:55:27;;;;;;;9.48;2.80;;;2.70;83.50;;;;;;5034084;28;20041;-88
2022/01/08 03:57:54;;;;;;;9.90;3.45;;;2.60;83.50;;;;;;5034272;28;20387;-88
2022/01/08 04:00:21;;;;;;;7.43;3.03;;;2.60;83.50;;;;;;5033133;28;20057;-87
2022/01/08 04:02:48;;;;;;;6.65;3.00;;;2.60;83.50;;;;;;5033919;28;20048;-88
2022/01/08 04:05:15;;;;;;;6.15;2.70;;;2.60;83.50;;;;;;5033924;28;20060;-89
2022/01/08 04:07:43;;;;;;;9.60;2.75;;;2.60;83.50;;;;;;5032873;28;20049;-88
2022/01/08 04:10:10;;;;;;;6.13;2.55;;;2.60;83.50;;;;;;5033832;28;20047;-88
2022/01/08 04:12:44;;;;;;;9.20;2.78;;;2.60;83.50;;;;;;5033041;28;20053;-88
2022/01/08 04:15:57;;;;;;;12.07;3.20;;;2.50;83.40;;;;;;5034196;28;20045;-88
2022/01/08 04:18:01;;;;;;;7.82;2.30;;;2.50;83.40;;;;;;5028725;28;20049;-88
2022/01/08 04:20:28;;;;;;;7.03;2.70;;;2.50;83.40;;;;;;5033643;28;20494;-88
2022/01/08 04:22:55;;;;;;;7.53;2.75;;;2.50;83.40;;;;;;5033282;28;20048;-89
2022/01/08 04:25:23;;;;;;;7.65;2.72;;;2.50;83.40;;;;;;5033568;28;20528;-89
2022/01/08 04:27:51;;;;;;;8.70;2.65;;;2.50;83.40;;;;;;5033299;28;20049;-88
2022/01/08 04:30:18;;;;;;;8.40;2.50;;;2.50;83.40;;;;;;5032543;28;20053;-90
2022/01/08 04:32:45;;;;;;;6.70;2.42;;;2.50;83.40;;;;;;5033394;28;20052;-89
2022/01/08 04:35:13;;;;;;;8.00;2.72;;;2.40;83.40;;;;;;5033501;28;20133;-89
2022/01/08 04:37:40;;;;;;;10.05;2.42;;;2.40;83.40;;;;;;5033172;28;20399;-89
2022/01/08 04:40:08;;;;;;;7.97;2.50;;;2.40;83.40;;;;;;5017830;28;20045;-88
2022/01/08 04:42:35;;;;;;;5.80;2.47;;;2.40;83.40;;;;;;5028455;28;20045;-88
2022/01/08 04:45:02;;;;;;;7.18;2.53;;;2.40;83.40;;;;;;5033334;28;20049;-89
2022/01/08 04:47:29;;;;;;;8.57;2.58;;;2.40;83.40;;;;;;5033217;28;20042;-89
2022/01/08 04:49:56;;;;;;;7.80;2.50;;;2.40;83.40;;;;;;5032938;28;20049;-89
2022/01/08 04:52:24;;;;;;;9.80;2.63;;;2.40;83.40;;;;;;5033488;28;20116;-89
2022/01/08 04:54:51;;;;;;;7.38;2.30;;;2.40;83.40;;;;;;5033155;28;20041;-90
2022/01/08 04:57:19;;;;;;;5.65;2.22;;;2.40;83.40;;;;;;5030175;28;20421;-90
2022/01/08 04:59:46;;;;;;;10.40;3.00;;;2.30;83.40;;;;;;5033173;28;20509;-90
2022/01/08 05:02:13;;;;;;;9.77;2.38;;;2.30;83.40;;;;;;5034317;28;20528;-89
2022/01/08 05:04:40;;;;;;;6.65;2.58;;;2.40;83.50;;;;;;5032846;28;20516;-88
2022/01/08 05:07:08;;;;;;;6.97;2.42;;;2.40;83.50;;;;;;5017301;28;20052;-90
2022/01/08 05:09:35;;;;;;;10.10;2.55;;;2.30;83.50;;;;;;5026979;28;20055;-89
2022/01/08 05:12:02;;;;;;;13.13;2.78;;;2.30;83.50;;;;;;5032879;28;20053;-90
2022/01/08 05:14:29;;;;;;;9.88;2.53;;;2.30;83.50;;;;;;5032943;28;20051;-89
2022/01/08 05:17:01;;;;;;;10.70;2.40;;;2.30;83.60;;;;;;5033017;28;20112;-89
2022/01/08 05:19:43;;;;;;;9.57;2.38;;;2.40;83.60;;;;;;5034065;28;20156;-89
2022/01/08 05:22:17;;;;;;;7.25;2.20;;;2.30;83.60;;;;;;5021753;28;20051;-90
2022/01/08 05:24:44;;;;;;;7.82;2.72;;;2.30;83.60;;;;;;5036173;28;20055;-89
2022/01/08 05:27:15;;;;;;;7.00;2.30;;;2.40;83.60;;;;;;5037353;28;20056;-89
2022/01/08 05:29:46;;;;;;;5.95;2.42;;;2.30;83.60;;;;;;5036802;28;20046;-90
2022/01/08 05:32:16;;;;;;;8.25;2.55;;;2.30;83.60;;;;;;5036712;28;20529;-89
2022/01/08 05:34:48;;;;;;;7.53;2.20;;;2.30;83.60;;;;;;5036484;28;20041;-89
2022/01/08 05:37:18;;;;;;;8.23;2.60;;;2.40;83.70;;;;;;5035659;28;20050;-89
2022/01/08 05:39:46;;;;;;;8.82;2.63;;;2.40;83.70;;;;;;5035942;28;20063;-89
2022/01/08 05:42:13;;;;;;;7.20;2.55;;;2.40;83.70;;;;;;5037183;28;20045;-89
2022/01/08 05:44:40;;;;;;;6.90;2.15;;;2.30;83.70;;;;;;5036690;28;20139;-89
2022/01/08 05:47:08;;;;;;;12.55;3.20;;;2.40;83.70;;;;;;5036356;28;20502;-89
2022/01/08 05:49:36;;;;;;;6.25;2.28;;;2.30;83.70;;;;;;5036274;28;20417;-90
2022/01/08 05:52:03;;;;;;;7.90;2.45;;;2.30;83.70;;;;;;5036537;28;20053;-89
2022/01/08 05:54:30;;;;;;;12.27;2.40;;;2.30;83.70;;;;;;5035849;28;20053;-89
2022/01/08 05:56:58;;;;;;;9.57;2.38;;;2.30;83.70;;;;;;5036440;28;20690;-89
2022/01/08 05:59:26;;;;;;;7.50;2.40;;;2.30;83.70;;;;;;5036243;28;20048;-90
2022/01/08 06:01:54;;;;;;;7.65;2.63;;;2.30;83.70;;;;;;5036223;28;20045;-89
2022/01/08 06:04:22;;;;;;;8.90;2.53;;;2.30;83.70;;;;;;5036087;28;20417;-89
2022/01/08 06:06:49;;;;;;;5.25;2.33;;;2.30;83.70;;;;;;5035470;28;20057;-89
2022/01/08 06:09:16;;;;;;;8.05;2.47;;;2.30;83.70;;;;;;5035659;28;20068;-89
2022/01/08 06:11:43;;;;;;;6.75;2.20;;;2.30;83.80;;;;;;5035964;28;20051;-89
2022/01/08 06:14:11;;;;;;;8.98;2.63;;;2.30;83.80;;;;;;5035972;28;20037;-89
2022/01/08 06:16:38;;;;;;;7.80;3.20;;;2.30;83.80;;;;;;5036105;28;20093;-87
2022/01/08 06:19:09;;;;;;;9.65;2.88;;;2.30;83.80;;;;;;5035804;28;20041;-89
2022/01/08 06:21:36;;;;;;;9.43;2.70;;;2.40;83.80;;;;;;5031039;28;20053;-89
2022/01/08 06:24:04;;;;;;;9.13;3.30;;;2.40;83.80;;;;;;5035854;28;20046;-89
2022/01/08 06:26:31;;;;;;;8.68;2.85;;;2.40;83.80;;;;;;5035685;28;20418;-88
2022/01/08 06:28:58;;;;;;;8.93;3.50;;;2.40;83.90;;;;;;5035835;28;20056;-89
2022/01/08 06:31:26;;;;;;;8.00;2.97;;;2.40;83.90;;;;;;5034827;28;20052;-89
2022/01/08 06:33:54;;;;;;;9.27;3.50;;;2.40;83.90;;;;;;5035821;28;20060;-89
2022/01/08 06:36:23;;;;;;;9.82;3.17;;;2.40;83.90;;;;;;5032950;28;20095;-89
2022/01/08 06:38:51;;;;;;;7.28;2.75;;;2.40;83.90;;;;;;5035571;28;20045;-89
2022/01/08 06:41:18;;;;;;;8.88;3.05;;;2.40;83.90;;;;;;5035621;28;20049;-89
2022/01/08 06:43:46;;;;;;;7.50;3.40;;;2.40;83.90;;;;;;5035503;28;20403;-89
2022/01/08 06:46:13;;;;;;;6.35;3.03;;;2.40;83.90;;;;;;5035193;28;20059;-89
2022/01/08 06:48:41;;;;;;;6.85;3.40;;;2.40;83.90;;;;;;5034391;28;20516;-90
2022/01/08 06:51:09;;;;;;;7.55;3.13;;;2.40;84.00;;;;;;5035214;28;20521;-88
2022/01/08 06:53:36;;;;;;;7.05;3.30;;;2.40;84.00;;;;;;5031119;28;20048;-87
2022/01/08 06:56:04;;;;;;;7.43;2.97;;;2.40;84.00;;;;;;5034488;28;20418;-88
2022/01/08 06:58:33;;;;;;;8.70;3.42;;;2.40;84.00;;;;;;5034309;28;20046;-87
2022/01/08 07:01:00;;;;;;;6.75;2.63;;;2.50;84.00;;;;;;5034305;28;20053;-88
2022/01/08 07:03:27;;;;;;;9.98;3.20;;;2.50;84.00;;;;;;5033891;28;20081;-88
2022/01/08 07:05:55;;;;;;;8.73;2.97;;;2.50;84.00;;;;;;5034119;28;20045;-87
2022/01/08 07:08:22;;;;;;;7.15;2.78;;;2.40;84.00;;;;;;5034470;28;20042;-88
2022/01/08 07:10:49;;;;;;;6.50;2.72;;;2.50;84.10;;;;;;5034386;28;20430;-88
2022/01/08 07:13:16;;;;;;;9.48;2.75;;;2.50;84.10;;;;;;5034371;28;20045;-87
2022/01/08 07:15:43;;;;;;;7.20;2.45;;;2.50;84.10;;;;;;5033383;28;20056;-88
2022/01/08 07:18:10;;;;;;;7.72;2.30;;;2.50;84.10;;;;;;5034536;28;20049;-88
2022/01/08 07:20:37;;;;;;;7.05;2.50;;;2.50;84.20;;;;;;5034136;28;20506;-88
2022/01/08 07:23:04;;;;;;;10.48;2.50;;;2.50;84.10;;;;;;5034291;28;20041;-87
2022/01/08 07:25:31;;;;;;;6.90;2.63;;;2.50;84.20;;;;;;5034467;28;20041;-87
2022/01/08 07:27:59;;;;;;;8.52;2.58;;;2.60;84.20;;;;;;5034074;28;20053;-88
2022/01/08 07:30:26;;;;;;;8.90;2.72;;;2.60;84.20;;;;;;5031783;28;20049;-88
2022/01/08 07:32:53;;;;;;;11.55;2.83;;;2.50;84.20;;;;;;5034248;28;20502;-87
2022/01/08 07:35:22;;;;;;;8.15;2.55;;;2.50;84.20;;;;;;5033835;28;20099;-87
2022/01/08 07:37:51;;;;;;;5.55;2.60;;;2.60;84.30;;;;;;5034114;28;20049;-87
2022/01/08 07:40:19;;;;;;;5.63;2.35;;;2.60;84.30;;;;;;5034131;28;20502;-87
2022/01/08 07:42:47;;;;;;;14.23;3.00;;;2.60;84.30;;;;;;5031666;28;20046;-86
2022/01/08 07:45:16;;;;;;;8.25;2.63;;;2.60;84.30;;;;;;5033564;28;20045;-86
2022/01/08 07:47:43;;;;;;;8.98;2.80;;;2.60;84.30;;;;;;5034036;28;20049;-86
2022/01/08 07:50:11;;;;;;;6.60;2.85;;;2.60;84.30;;;;;;5033532;28;20046;-86
2022/01/08 07:52:39;;;;;;;8.45;2.97;;;2.60;84.40;;;;;;5033966;28;20056;-86
2022/01/08 07:55:06;;;;;;;8.05;3.20;;;2.60;84.40;;;;;;5033897;28;20045;-85
2022/01/08 07:57:33;;;;;;;15.43;3.42;;;2.60;84.40;;;;;;5032550;28;20053;-86
2022/01/08 08:00:00;;;;;;;7.22;2.95;;;2.60;84.40;;;;;;5033154;28;20049;-87
2022/01/08 08:02:27;;;;;;;8.70;3.15;;;2.60;84.40;;;;;;5033676;28;20052;-86
2022/01/08 08:04:54;;;;;;;8.48;3.60;;;2.70;84.40;;;;;;5033197;28;20058;-87
2022/01/08 08:07:28;;;;;;;6.93;2.95;;;2.70;84.50;;;;;;5033454;28;20163;-86
2022/01/08 08:09:56;;;;;;;9.13;3.38;;;2.60;84.50;;;;;;5033550;28;20042;-86
2022/01/08 08:12:24;;;;;;;9.48;4.03;;;2.70;84.50;;;;;;5032206;28;20049;-87
2022/01/08 08:14:51;;;;;;;8.75;4.25;;;2.70;84.50;;;;;;5033162;28;20045;-86
2022/01/08 08:17:18;;;;;;;7.55;3.60;;;2.70;84.50;;;;;;5033486;28;20425;-87
2022/01/08 08:19:45;;;;;;;11.27;3.55;;;2.70;84.60;;;;;;5033238;28;20051;-86
2022/01/08 08:22:12;;;;;;;11.73;3.33;;;2.70;84.60;;;;;;5033501;28;20045;-85
2022/01/08 08:24:39;;;;;;;11.38;3.75;;;2.70;84.60;;;;;;5032737;28;20391;-83
2022/01/08 08:27:07;;;;;;;11.20;3.67;;;2.70;84.60;;;;;;5034565;28;20057;-84
2022/01/08 08:29:35;;;;;;;11.68;4.15;;;2.70;84.70;;;;;;5032781;28;20044;-86
2022/01/08 08:32:02;;;;;;;16.00;4.05;;;2.80;84.70;;;;;;5034545;28;20056;-86
2022/01/08 08:34:30;;;;;;;7.10;3.55;;;2.80;84.70;;;;;;5030892;28;20049;-86
2022/01/08 08:36:57;;;;;;;13.82;3.72;;;2.80;84.80;;;;;;5029616;28;20053;-86
2022/01/08 08:39:25;;;;;;;7.57;3.53;;;2.80;84.80;;;;;;5028004;28;20048;-85
2022/01/08 08:41:52;;;;;;;9.15;4.20;;;2.80;84.80;;;;;;5018171;28;20129;-85
2022/01/08 08:44:19;;;;;;;12.70;4.10;;;2.80;84.80;;;;;;5016762;28;20045;-85
2022/01/08 08:46:46;;;;;;;9.32;3.45;;;2.80;84.80;;;;;;5016780;28;20422;-85
2022/01/08 08:49:13;;;;;;;13.00;4.47;;;2.80;84.90;;;;;;5013008;28;20045;-85
2022/01/08 08:51:40;;;;;;;9.90;4.05;;;2.90;84.90;;;;;;5015677;28;20076;-85
2022/01/08 08:54:07;;;;;;;11.98;4.43;;;2.90;84.90;;;;;;5017165;28;20064;-85
2022/01/08 08:56:34;;;;;;;9.88;4.63;;;2.90;85.00;;;;;;5015399;28;20049;-84
2022/01/08 08:59:01;;;;;;;10.65;4.65;;;2.90;85.00;;;;;;5016845;28;20055;-85
2022/01/08 09:01:29;;;;;;;13.95;5.20;;;2.90;85.00;;;;;;5030379;28;20056;-85
2022/01/08 09:03:56;;;;;;;8.80;4.43;;;2.90;85.10;;;;;;5013777;28;20056;-85
2022/01/08 09:06:26;;;;;;;9.43;4.47;;;2.90;85.10;;;;;;5027456;28;20107;-85
2022/01/08 09:08:54;;;;;;;11.88;4.90;;;2.90;85.10;;;;;;5017973;28;20423;-84
2022/01/08 09:11:21;;;;;;;13.93;4.82;;;3.00;85.20;;;;;;5016094;28;20045;-84
2022/01/08 09:13:49;;;;;;;18.15;5.25;;;3.00;85.20;;;;;;5016614;28;20045;-84
2022/01/08 09:16:17;;;;;;;12.57;5.10;;;3.00;85.20;;;;;;5013916;28;20052;-84
2022/01/08 09:18:45;;;;;;;15.80;4.78;;;3.00;85.30;;;;;;5027598;28;20049;-85
2022/01/08 09:21:12;;;;;;;12.25;4.75;;;3.10;85.30;;;;;;5012052;28;20509;-84
2022/01/08 09:23:40;;;;;;;10.38;5.18;;;3.10;85.40;;;;;;5016404;28;20056;-84
2022/01/08 09:26:07;;;;;;;13.02;4.65;;;3.10;85.40;;;;;;5016065;28;20042;-85
2022/01/08 09:28:34;;;;;;;13.32;5.15;;;3.20;85.50;;;;;;5015739;28;20528;-85
2022/01/08 09:31:03;;;;;;;10.48;4.97;;;3.10;85.50;;;;;;5013153;28;20053;-84
2022/01/08 09:33:31;;;;;;;17.05;4.80;;;3.20;85.50;;;;;;5016456;28;20085;-84
2022/01/08 09:35:59;;;;;;;10.75;4.72;;;3.20;85.60;;;;;;5016426;28;20048;-85
2022/01/08 09:38:26;;;;;;;11.57;4.72;;;3.30;85.60;;;;;;5016668;28;20046;-85
2022/01/08 09:40:53;;;;;;;12.00;4.93;;;3.30;85.70;;;;;;5016108;28;20049;-84
2022/01/08 09:43:20;;;;;;;10.77;5.30;;;3.30;85.70;;;;;;5013544;28;20498;-85
2022/01/08 09:45:48;;;;;;;12.05;5.15;;;3.30;85.80;;;;;;5014024;28;20407;-84
2022/01/08 09:48:15;;;;;;;10.18;4.80;;;3.40;85.80;;;;;;5016714;28;20060;-85
2022/01/08 09:50:43;;;;;;;13.68;5.18;;;3.40;85.80;;;;;;5016249;28;20125;-85
2022/01/08 09:53:11;;;;;;;12.80;5.50;;;3.40;85.90;;;;;;5016330;28;20082;-85
2022/01/08 09:55:39;;;;;;;12.05;4.78;;;3.40;85.90;;;;;;5015402;28;20046;-85
2022/01/08 09:58:06;;;;;;;15.85;5.03;;;3.50;85.90;;;;;;5012339;28;20529;-84
2022/01/08 10:00:37;;;;;;;10.13;4.57;;;3.50;86.00;;;;;;5016265;28;20406;-84
2022/01/08 10:03:26;;;;;;;13.32;4.95;;;3.50;86.00;;;;;;5016083;28;20058;-84
2022/01/08 10:05:56;;;;;;;15.65;5.10;;;3.50;86.10;;;;;;5016229;28;20137;-84
2022/01/08 10:08:43;;;;;;;11.80;4.65;;;3.60;86.10;;;;;;5019437;28;20125;-84
2022/01/08 10:11:12;;;;;;;15.60;4.60;;;3.60;86.20;;;;;;5020654;28;20049;-84
2022/01/08 10:13:41;;;;;;;12.32;4.95;;;3.70;86.20;;;;;;5029717;28;20056;-84
2022/01/08 10:19:00;;;;;;;20.38;6.03;;;3.70;86.30;;;;;;5031332;28;20064;-85
2022/01/08 10:21:29;;;;;;;12.52;5.30;;;3.80;86.30;;;;;;5019571;28;20058;-84
2022/01/08 10:23:59;;;;;;;11.55;4.22;;;3.80;86.40;;;;;;5019386;28;20052;-84
2022/01/08 10:26:32;;;;;;;14.05;5.90;;;3.90;86.40;;;;;;5019618;28;20052;-84
2022/01/08 10:29:02;;;;;;;16.13;5.75;;;3.90;86.40;;;;;;5019409;28;20045;-84
2022/01/08 10:31:38;;;;;;;16.35;5.72;;;3.90;86.50;;;;;;5017583;28;20058;-85
2022/01/08 10:34:22;;;;;;;20.73;6.05;;;3.90;86.50;;;;;;5016222;28;20414;-85
2022/01/08 10:36:59;;;;;;;17.55;7.10;;;4.00;86.50;;;;;;5029143;28;20041;-85
2022/01/08 10:39:29;;;;;;;16.75;5.93;;;4.00;86.60;;;;;;5018934;28;20053;-85
2022/01/08 10:41:58;;;;;;;18.08;5.97;;;4.00;86.60;;;;;;5019018;28;20057;-85
2022/01/08 10:44:28;;;;;;;19.42;6.03;;;4.10;86.60;;;;;;5053786;28;20406;-85
2022/01/08 10:47:05;;;;;;;22.42;7.10;;;4.10;86.60;;;;;;5028417;28;20045;-85
2022/01/08 10:49:40;;;;;;;13.63;6.15;;;4.20;86.70;;;;;;5018374;28;20073;-85
2022/01/08 10:52:14;;;;;;;24.42;6.68;;;4.20;86.70;;;;;;5014912;28;20065;-84
2022/01/08 10:54:48;;;;;;;15.32;6.57;;;4.20;86.70;;;;;;5030219;28;20521;-85
2022/01/08 10:57:15;;;;;;;21.38;6.35;;;4.20;86.80;;;;;;5029136;28;20049;-84
2022/01/08 10:59:43;;;;;;;29.40;7.22;;;4.30;86.80;;;;;;5021709;28;20052;-84
2022/01/08 11:02:12;;;;;;;24.92;7.57;;;4.40;86.80;;;;;;5018661;28;20053;-85
2022/01/08 11:04:43;;;;;;;18.80;7.25;;;4.40;86.90;;;;;;5018382;28;20057;-84
2022/01/08 11:07:22;;;;;;;19.42;7.85;;;4.40;86.90;;;;;;5013926;28;20053;-85
2022/01/08 11:09:55;;;;;;;34.80;8.85;;;4.50;87.00;;;;;;5016504;28;20495;-86
2022/01/08 11:12:35;;;;;;;27.52;9.02;;;4.50;87.00;;;;;;5018439;28;20049;-85
2022/01/08 11:17:44;;;;;;;32.10;10.43;;;4.60;87.20;;;;;;5021642;28;20054;-85
2022/01/08 11:20:16;;;;;;;26.45;9.57;;;4.70;87.20;;;;;;5018624;28;20048;-85
2022/01/08 11:22:45;;;;;;;26.98;9.85;;;4.80;87.30;;;;;;5015217;28;20442;-85
2022/01/08 11:25:19;;;;;;;29.77;10.15;;;4.80;87.30;;;;;;5031107;28;20049;-85
2022/01/08 11:27:52;;;;;;;33.47;10.88;;;4.90;87.40;;;;;;5029382;28;20526;-85
2022/01/08 11:30:21;;;;;;;33.05;10.80;;;4.90;87.40;;;;;;5029017;28;20053;-85
2022/01/08 11:32:50;;;;;;;27.08;10.25;;;5.00;87.50;;;;;;5020367;28;20050;-85
2022/01/08 11:35:35;;;;;;;32.97;10.48;;;5.00;87.50;;;;;;5018090;28;20046;-85
2022/01/08 11:38:06;;;;;;;31.20;10.93;;;5.10;87.60;;;;;;5017717;28;20057;-85
2022/01/08 11:40:36;;;;;;;40.50;10.10;;;5.20;87.60;;;;;;5016965;28;20044;-85
2022/01/08 11:43:05;;;;;;;32.63;11.15;;;5.30;87.60;;;;;;5014356;28;20053;-84
2022/01/08 11:45:48;;;;;;;30.10;11.52;;;5.30;87.70;;;;;;5017998;28;20045;-85
2022/01/08 11:48:19;;;;;;;32.60;10.88;;;5.40;87.70;;;;;;5028105;28;20054;-85
2022/01/08 11:50:59;;;;;;;26.77;9.50;;;5.40;87.70;;;;;;5020141;28;20041;-85
2022/01/08 11:53:32;;;;;;;33.17;9.65;;;5.50;87.80;;;;;;5016180;28;20056;-84
2022/01/08 11:56:05;;;;;;;33.65;10.50;;;5.50;87.80;;;;;;5017538;28;20042;-85
2022/01/08 11:58:36;;;;;;;29.38;10.18;;;5.60;87.80;;;;;;5028978;28;20137;-85
2022/01/08 12:01:06;;;;;;;24.40;9.65;;;5.70;87.80;;;;;;5013959;28;20053;-85
2022/01/08 12:03:40;;;;;;;28.17;10.27;;;5.70;87.80;;;;;;5028132;28;20058;-85
2022/01/08 12:06:22;;;;;;;22.10;9.15;;;5.80;87.90;;;;;;5012032;28;20065;-85
2022/01/08 12:11:45;;;;;;;19.48;8.27;;;5.90;87.90;;;;;;5017342;28;20084;-86
2022/01/08 12:14:17;;;;;;;21.45;7.65;;;5.90;87.90;;;;;;5017420;28;20049;-85
2022/01/08 12:16:46;;;;;;;21.85;7.25;;;6.00;87.90;;;;;;5049164;28;20490;-85
2022/01/08 12:19:53;;;;;;;23.92;7.55;;;6.10;87.90;;;;;;5013856;28;20068;-86
2022/01/08 12:22:20;;;;;;;23.20;7.32;;;6.20;88.00;;;;;;5009386;28;20502;-85
2022/01/08 12:24:52;;;;;;;21.20;7.20;;;6.20;88.00;;;;;;5009706;28;20590;-85
2022/01/08 12:27:33;;;;;;;25.33;7.45;;;6.20;88.00;;;;;;5010553;28;20046;-85
2022/01/08 12:30:01;;;;;;;21.67;6.75;;;6.20;88.00;;;;;;5008758;28;20056;-85
2022/01/08 12:32:38;;;;;;;22.27;7.05;;;6.30;88.00;;;;;;5009225;28;20049;-85
2022/01/08 12:35:24;;;;;;;25.58;7.00;;;6.40;88.00;;;;;;5008943;28;20081;-85
2022/01/08 12:37:59;;;;;;;26.55;7.18;;;6.40;88.00;;;;;;4988627;28;20053;-85
2022/01/08 12:40:38;;;;;;;25.73;6.38;;;6.40;88.00;;;;;;5009469;28;20073;-86
2022/01/08 12:43:23;;;;;;;28.60;6.20;;;6.40;88.00;;;;;;5009177;28;20060;-85
2022/01/08 12:45:52;;;;;;;18.67;5.90;;;6.50;88.00;;;;;;5009437;28;20569;-85
2022/01/08 12:48:20;;;;;;;21.77;6.65;;;6.60;88.00;;;;;;5009836;28;20058;-83
2022/01/08 12:50:47;;;;;;;22.52;6.07;;;6.60;88.00;;;;;;5009009;28;20042;-85
2022/01/08 12:53:24;;;;;;;23.48;5.90;;;6.60;88.00;;;;;;5008835;28;20056;-85
2022/01/08 12:55:57;;;;;;;22.98;5.40;;;6.60;88.00;;;;;;5009039;28;20051;-84
2022/01/08 12:58:36;;;;;;;24.77;5.43;;;6.70;88.00;;;;;;5021922;28;20052;-85
2022/01/08 13:01:07;;;;;;;24.58;4.95;;;6.70;88.00;;;;;;5013144;28;20418;-85
2022/01/08 13:03:43;;;;;;;16.85;4.68;;;6.70;88.00;;;;;;5016383;28;20133;-85
2022/01/08 13:06:13;;;;;;;27.42;4.90;;;6.80;88.00;;;;;;5017181;28;20057;-85
2022/01/08 13:08:43;;;;;;;24.15;4.85;;;6.80;88.00;;;;;;5016538;28;20046;-85
2022/01/08 13:11:12;;;;;;;26.05;5.15;;;6.80;88.00;;;;;;5016876;28;20042;-85
2022/01/08 13:13:46;;;;;;;27.92;5.18;;;6.90;88.00;;;;;;5016288;28;20045;-86
2022/01/08 13:16:17;;;;;;;20.95;4.80;;;6.90;87.90;;;;;;5012950;28;20060;-85
2022/01/08 13:18:52;;;;;;;27.73;5.40;;;6.90;88.00;;;;;;5014777;28;20050;-85
2022/01/08 13:21:20;;;;;;;33.08;5.40;;;6.90;87.90;;;;;;5027243;28;20049;-85
2022/01/08 13:23:52;;;;;;;23.17;4.57;;;7.00;87.90;;;;;;5019095;28;20052;-85
2022/01/08 13:26:36;;;;;;;22.40;4.65;;;7.00;87.90;;;;;;5016407;28;20042;-86
2022/01/08 13:29:29;;;;;;;24.10;4.03;;;7.00;87.90;;;;;;5016379;28;20089;-85
2022/01/08 13:32:10;;;;;;;19.35;4.40;;;7.00;87.90;;;;;;5016123;28;20049;-85